Terminal Aerodrome Forecast
Issued by NWS

Home | Current Version | Previous Version | Text Only | Print | Product List | Glossary On
Versions: 1 2 3 4 5 6 7 8 9 10 11 12 13 14 15
759
FTUS44 KTSA 271121
TAFBVO
TAF
KBVO 271121Z 2712/2812 VRB04KT P6SM SKC
     FM271500 15010KT P6SM BKN150
     FM280000 14007KT P6SM BKN100
      TEMPO 2802/2806 3SM -TSRA BKN050CB=

USA.gov is the U.S. government's official web portal to all federal, state and local government web resources and services.